createdAt,value
2023-02-28T00:03:04.435Z,6.37
2023-02-28T00:18:06.287Z,8.00
2023-02-28T00:33:07.976Z,5.57
2023-02-28T00:48:09.600Z,7.07
2023-02-28T01:03:11.321Z,6.07
2023-02-28T01:18:13.061Z,7.30
2023-02-28T01:33:14.731Z,7.87
2023-02-28T01:48:16.807Z,7.03
2023-02-28T02:03:21.388Z,6.97
2023-02-28T02:18:47.617Z,6.63
2023-02-28T02:34:04.480Z,6.07
2023-02-28T02:49:12.251Z,6.70
2023-02-28T03:04:19.266Z,7.53
2023-02-28T03:19:41.084Z,5.73
2023-02-28T03:34:54.916Z,7.47
2023-02-28T03:50:04.029Z,6.70
2023-02-28T04:05:06.536Z,5.07
2023-02-28T04:20:10.708Z,5.47
2023-02-28T04:35:12.565Z,5.23
2023-02-28T04:50:14.310Z,6.47
2023-02-28T05:05:19.203Z,4.80
2023-02-28T05:20:21.952Z,6.33
2023-02-28T05:35:23.972Z,5.50
2023-02-28T05:50:25.626Z,6.57
2023-02-28T06:05:27.413Z,5.73
2023-02-28T06:20:31.863Z,7.13
2023-02-28T06:35:33.554Z,6.43
2023-02-28T06:50:35.241Z,5.67
2023-02-28T07:05:39.140Z,8.57
2023-02-28T07:20:40.771Z,5.63
2023-02-28T07:35:42.742Z,5.93
2023-02-28T07:50:44.524Z,5.97
2023-02-28T08:05:46.253Z,8.53
2023-02-28T08:20:47.893Z,6.33
2023-02-28T08:35:49.689Z,6.67
2023-02-28T08:51:08.297Z,6.17
2023-02-28T09:06:11.370Z,6.10
2023-02-28T09:21:16.233Z,6.23
2023-02-28T09:36:18.716Z,6.93
2023-02-28T09:51:51.876Z,7.17
2023-02-28T10:06:54.370Z,9.47
2023-02-28T10:22:02.794Z,7.10
2023-02-28T10:37:08.347Z,8.03
2023-02-28T10:52:10.791Z,10.53
2023-02-28T11:07:24.385Z,9.20
2023-02-28T11:22:30.770Z,9.37
2023-02-28T11:37:34.067Z,12.90
2023-02-28T11:52:55.190Z,12.17
2023-02-28T12:08:03.729Z,9.87
2023-02-28T12:23:23.802Z,9.47
2023-02-28T12:38:46.400Z,13.03
2023-02-28T12:54:04.661Z,10.53
2023-02-28T13:09:15.708Z,10.07
2023-02-28T13:24:52.849Z,10.23
2023-02-28T13:40:04.119Z,12.13
2023-02-28T13:55:24.819Z,9.97
2023-02-28T14:10:38.293Z,9.37
2023-02-28T14:26:15.461Z,13.57
2023-02-28T14:41:25.090Z,10.47
2023-02-28T14:56:38.566Z,9.33
2023-02-28T15:26:56.181Z,8.97
2023-02-28T15:42:22.360Z,9.67
2023-02-28T15:57:27.525Z,9.03
2023-02-28T16:12:32.310Z,7.57
2023-02-28T16:27:38.352Z,6.43
2023-02-28T16:42:40.307Z,7.50
2023-02-28T16:57:42.277Z,8.10
2023-02-28T17:12:44.492Z,7.23
2023-02-28T17:27:46.860Z,5.60
2023-02-28T17:42:48.670Z,6.60
2023-02-28T17:57:50.380Z,5.93
2023-02-28T18:12:53.112Z,6.47
2023-02-28T18:27:58.228Z,4.73
2023-02-28T18:43:00.434Z,4.80
2023-02-28T18:58:02.206Z,5.33
2023-02-28T19:13:04.732Z,6.33
2023-02-28T19:28:06.442Z,5.73
2023-02-28T19:43:08.829Z,5.43
2023-02-28T19:58:10.980Z,5.57
2023-02-28T20:13:12.607Z,5.53
2023-02-28T20:28:14.361Z,5.10
2023-02-28T20:43:16.092Z,5.50
2023-02-28T20:58:17.774Z,4.80
2023-02-28T21:13:19.485Z,6.60
2023-02-28T21:28:21.210Z,6.53
2023-02-28T21:43:23.051Z,6.70
2023-02-28T21:58:24.787Z,7.07
2023-02-28T22:13:26.510Z,7.03
2023-02-28T22:28:30.221Z,6.83
2023-02-28T22:43:32.917Z,5.80
2023-02-28T22:58:35.316Z,6.63
2023-02-28T23:13:37.178Z,5.77
2023-02-28T23:28:38.907Z,5.17
2023-02-28T23:43:41.010Z,5.50
2023-02-28T23:58:43.958Z,4.90
